Mason, Oklahoma
Current Conditions -  °F | °C
As of 4:55 AM on Thursday 23 Oct 2014 (Local Time) from KOKM Reporting Station
Overcast Overcast  
Wind Chill: 60°   Ceiling: 4600
Heat Index: 60°   Visibility: 10mi
Dew Point: 58°   Wind: 3mph
Humidity: 93%   Direction: 140°SE
Pressure: 30.12"   Gusts: NA
Location:  35.469°N, 96.2923°W
Report Text: KOKM 230955Z AUTO 14003KT 10SM BKN046 BKN050 OVC065 16/15 A3012 RMK AO2 T01570146
Loading
Personal Weather Stations






























Interactive Weather Map
Tropical Storm Tracking
New forecast layout! Learn more

10-Day Weather Forecast

Advertisements
Track Severe Weather on mobile